Time;durP1;ratioP1;P1;durP2;ratioP2;P2;SDS_P1;SDS_P2;PMS_P1;PMS_P2;Temp;Humidity;BMP_temperature;BMP_pressure;BME280_temperature;BME280_humidity;BME280_pressure;Samples;Min_cycle;Max_cycle;Signal;HPM_P1;HPM_P2
2022/12/27 00:00:49;;;;;;;15.07;10.02;;;;;;;;;;5046650;28;20047;-75
2022/12/27 00:03:15;;;;;;;16.95;9.00;;;;;;;;;;5041677;28;20029;-76
2022/12/27 00:05:44;;;;;;;12.55;7.90;;;;;;;;;;5045898;28;20025;-76
2022/12/27 00:08:10;;;;;;;14.40;6.25;;;;;;;;;;5040714;28;20029;-76
2022/12/27 00:10:36;;;;;;;8.52;5.40;;;;;;;;;;5048039;28;20628;-76
2022/12/27 00:13:02;;;;;;;10.93;7.03;;;;;;;;;;5046249;28;20040;-76
2022/12/27 00:15:28;;;;;;;14.18;10.95;;;;;;;;;;5043461;28;20032;-76
2022/12/27 00:17:54;;;;;;;14.50;11.75;;;;;;;;;;5041313;28;20032;-76
2022/12/27 00:20:21;;;;;;;12.15;8.60;;;;;;;;;;5047760;28;20037;-76
2022/12/27 00:22:47;;;;;;;14.77;10.32;;;;;;;;;;5046530;28;20037;-76
2022/12/27 00:25:13;;;;;;;15.88;11.98;;;;;;;;;;5047089;28;20098;-76
2022/12/27 00:27:39;;;;;;;19.45;13.13;;;;;;;;;;5045174;28;20214;-76
2022/12/27 00:30:05;;;;;;;16.50;13.15;;;;;;;;;;5045517;28;20116;-76
2022/12/27 00:32:31;;;;;;;13.98;8.68;;;;;;;;;;5034869;28;20109;-76
2022/12/27 00:34:57;;;;;;;18.65;12.82;;;;;;;;;;5044646;28;20495;-76
2022/12/27 00:37:23;;;;;;;14.15;9.95;;;;;;;;;;5047093;28;20029;-76
2022/12/27 00:39:49;;;;;;;15.57;9.10;;;;;;;;;;5046160;28;20024;-76
2022/12/27 00:42:15;;;;;;;20.08;13.73;;;;;;;;;;5047889;28;20089;-76
2022/12/27 00:44:42;;;;;;;12.25;8.70;;;;;;;;;;5046554;28;20125;-76
2022/12/27 00:47:08;;;;;;;12.23;7.88;;;;;;;;;;5038086;28;20043;-76
2022/12/27 00:49:34;;;;;;;10.68;6.82;;;;;;;;;;5036828;28;20025;-76
2022/12/27 00:52:00;;;;;;;19.08;14.40;;;;;;;;;;5040630;28;20052;-76
2022/12/27 00:54:26;;;;;;;27.48;19.55;;;;;;;;;;5052149;28;20634;-76
2022/12/27 00:56:52;;;;;;;24.60;19.15;;;;;;;;;;5065414;28;20036;-76
2022/12/27 00:59:18;;;;;;;18.40;12.68;;;;;;;;;;5059556;28;20103;-76
2022/12/27 01:01:44;;;;;;;15.60;10.65;;;;;;;;;;5061357;28;20111;-76
2022/12/27 01:04:12;;;;;;;22.35;12.65;;;;;;;;;;5058368;28;20131;-76
2022/12/27 01:06:39;;;;;;;17.77;13.10;;;;;;;;;;5066811;28;20402;-76
2022/12/27 01:09:05;;;;;;;15.68;11.07;;;;;;;;;;5063138;28;20032;-76
2022/12/27 01:11:31;;;;;;;17.83;11.45;;;;;;;;;;5045375;28;20533;-76
2022/12/27 01:13:59;;;;;;;17.80;12.05;;;;;;;;;;5058803;28;20090;-76
2022/12/27 01:16:25;;;;;;;20.77;14.88;;;;;;;;;;5066370;28;20036;-76
2022/12/27 01:18:52;;;;;;;15.90;11.73;;;;;;;;;;5047536;28;20039;-76
2022/12/27 01:21:20;;;;;;;22.92;17.05;;;;;;;;;;5066561;28;21023;-76
2022/12/27 01:23:47;;;;;;;23.20;14.63;;;;;;;;;;5061910;28;20032;-76
2022/12/27 01:26:15;;;;;;;17.80;11.82;;;;;;;;;;5066883;28;20082;-76
2022/12/27 01:28:41;;;;;;;21.33;15.07;;;;;;;;;;5059991;28;20024;-76
2022/12/27 01:31:09;;;;;;;24.20;17.38;;;;;;;;;;5060012;28;20055;-76
2022/12/27 01:33:35;;;;;;;22.17;14.93;;;;;;;;;;5063997;28;20043;-76
2022/12/27 01:36:14;;;;;;;22.15;16.55;;;;;;;;;;5045130;28;20036;-76
2022/12/27 01:38:43;;;;;;;30.83;21.75;;;;;;;;;;5061650;28;20098;-76
2022/12/27 01:43:58;;;;;;;26.58;19.67;;;;;;;;;;5062170;28;20488;-76
2022/12/27 01:46:24;;;;;;;24.67;18.63;;;;;;;;;;5046870;28;20687;-76
2022/12/27 01:48:50;;;;;;;18.58;15.18;;;;;;;;;;5062102;28;20521;-76
2022/12/27 01:51:16;;;;;;;16.38;13.48;;;;;;;;;;5063267;28;20032;-76
2022/12/27 01:53:44;;;;;;;20.80;16.23;;;;;;;;;;5046200;28;20024;-76
2022/12/27 01:56:26;;;;;;;14.52;10.55;;;;;;;;;;5065353;28;20707;-76
2022/12/27 01:58:54;;;;;;;15.60;11.45;;;;;;;;;;5062482;28;20107;-76
2022/12/27 02:01:21;;;;;;;21.73;13.60;;;;;;;;;;5045912;28;20056;-76
2022/12/27 02:03:52;;;;;;;18.75;11.80;;;;;;;;;;5065623;28;20037;-76
2022/12/27 02:06:20;;;;;;;17.50;12.07;;;;;;;;;;5063934;28;20064;-76
2022/12/27 02:08:51;;;;;;;29.88;19.50;;;;;;;;;;5065564;28;20021;-76
2022/12/27 02:11:49;;;;;;;26.60;15.80;;;;;;;;;;5061370;28;20101;-76
2022/12/27 02:14:03;;;;;;;20.23;14.90;;;;;;;;;;5062791;28;20033;-76
2022/12/27 02:16:29;;;;;;;24.10;19.90;;;;;;;;;;5058426;28;20598;-76
2022/12/27 02:18:55;;;;;;;18.50;14.38;;;;;;;;;;5065414;28;20033;-76
2022/12/27 02:21:24;;;;;;;37.53;27.08;;;;;;;;;;5061384;28;20676;-76
2022/12/27 02:24:02;;;;;;;47.20;27.30;;;;;;;;;;5064320;28;20028;-76
2022/12/27 02:26:46;;;;;;;21.45;16.35;;;;;;;;;;5062892;28;20071;-76
2022/12/27 02:29:18;;;;;;;18.27;13.52;;;;;;;;;;5055130;28;20104;-76
2022/12/27 02:31:54;;;;;;;18.27;15.57;;;;;;;;;;5056618;28;20083;-76
2022/12/27 02:34:24;;;;;;;16.13;13.23;;;;;;;;;;5040987;28;20082;-76
2022/12/27 02:36:52;;;;;;;17.70;12.90;;;;;;;;;;5065621;28;20072;-76
2022/12/27 02:39:20;;;;;;;17.95;13.93;;;;;;;;;;5062121;28;20032;-76
2022/12/27 02:53:11;;;;;;;22.00;17.95;;;;;;;;;;5059144;28;20091;-76
2022/12/27 02:58:34;;;;;;;31.75;23.95;;;;;;;;;;5061993;28;20118;-76
2022/12/27 03:04:02;;;;;;;41.75;26.63;;;;;;;;;;5066487;28;20052;-76
2022/12/27 03:06:48;;;;;;;20.42;17.25;;;;;;;;;;5044803;28;20120;-76
2022/12/27 03:15:53;;;;;;;22.05;18.15;;;;;;;;;;5055986;28;20071;-76
2022/12/27 03:15:54;;;;;;;37.35;24.05;;;;;;;;;;5060072;28;20056;-76
2022/12/27 03:18:24;;;;;;;23.17;18.88;;;;;;;;;;5064198;28;20094;-76
2022/12/27 03:26:22;;;;;;;29.90;19.92;;;;;;;;;;5064425;28;20047;-76
2022/12/27 03:34:34;;;;;;;41.13;27.30;;;;;;;;;;5063102;28;20036;-76
2022/12/27 03:40:14;;;;;;;20.20;14.73;;;;;;;;;;5059568;28;20078;-76
2022/12/27 03:43:10;;;;;;;23.98;18.45;;;;;;;;;;5062205;28;20073;-76
2022/12/27 03:48:51;;;;;;;30.40;20.45;;;;;;;;;;5059682;28;20035;-76
2022/12/27 03:51:20;;;;;;;32.20;20.92;;;;;;;;;;5067183;28;20028;-75
2022/12/27 03:53:46;;;;;;;45.85;32.55;;;;;;;;;;5067170;28;20029;-76
2022/12/27 03:56:12;;;;;;;33.90;24.30;;;;;;;;;;5065086;28;20041;-75
2022/12/27 03:58:38;;;;;;;37.50;27.45;;;;;;;;;;5067275;28;20112;-76
2022/12/27 04:01:05;;;;;;;33.20;24.40;;;;;;;;;;5067113;28;20932;-76
2022/12/27 04:03:31;;;;;;;35.50;24.83;;;;;;;;;;5062972;28;20075;-76
2022/12/27 04:05:57;;;;;;;36.47;25.40;;;;;;;;;;5065797;28;20047;-76
2022/12/27 04:35:50;;;;;;;18.15;12.75;;;;;;;;;;5063310;28;20055;-76
2022/12/27 04:38:16;;;;;;;15.85;9.73;;;;;;;;;;5064759;28;20609;-76
2022/12/27 04:57:18;;;;;;;15.60;10.80;;;;;;;;;;5065560;28;20039;-76
2022/12/27 05:02:28;;;;;;;124.75;21.02;;;;;;;;;;5053880;28;20044;-75
2022/12/27 05:04:55;;;;;;;40.63;13.35;;;;;;;;;;5064809;28;20028;-76
2022/12/27 05:15:35;;;;;;;82.15;17.73;;;;;;;;;;5064827;28;20043;-75
2022/12/27 05:18:01;;;;;;;161.52;21.25;;;;;;;;;;5065513;28;20028;-76
2022/12/27 05:20:27;;;;;;;42.50;18.15;;;;;;;;;;5064973;28;20382;-76
2022/12/27 05:25:42;;;;;;;46.28;16.50;;;;;;;;;;5065526;28;20093;-76
2022/12/27 05:28:09;;;;;;;30.13;13.50;;;;;;;;;;5065250;28;20029;-76
2022/12/27 05:30:36;;;;;;;16.88;11.77;;;;;;;;;;5066056;28;20040;-76
2022/12/27 05:33:03;;;;;;;28.55;13.35;;;;;;;;;;5063778;28;20115;-76
2022/12/27 05:35:29;;;;;;;34.47;14.02;;;;;;;;;;5064979;28;20036;-76
2022/12/27 05:37:55;;;;;;;17.48;9.55;;;;;;;;;;5059257;28;20514;-76
2022/12/27 05:40:22;;;;;;;72.45;13.60;;;;;;;;;;5065034;28;20036;-76
2022/12/27 05:42:48;;;;;;;93.95;22.48;;;;;;;;;;5061883;28;20040;-76
2022/12/27 05:45:14;;;;;;;49.83;15.52;;;;;;;;;;5065659;28;20039;-75
2022/12/27 05:47:40;;;;;;;16.52;9.25;;;;;;;;;;5066221;28;20032;-76
2022/12/27 05:50:07;;;;;;;21.48;11.50;;;;;;;;;;5065176;28;20032;-76
2022/12/27 05:52:33;;;;;;;11.55;7.82;;;;;;;;;;5064522;28;20075;-76
2022/12/27 05:54:59;;;;;;;28.17;14.50;;;;;;;;;;5062482;28;20037;-76
2022/12/27 05:57:25;;;;;;;13.05;8.93;;;;;;;;;;5058288;28;20029;-76
2022/12/27 05:59:51;;;;;;;14.10;9.95;;;;;;;;;;5065478;28;20032;-76
2022/12/27 06:02:17;;;;;;;16.55;10.25;;;;;;;;;;5064573;28;20105;-76
2022/12/27 06:04:43;;;;;;;15.65;9.73;;;;;;;;;;5054414;28;20430;-76
2022/12/27 06:07:12;;;;;;;17.08;11.10;;;;;;;;;;5066457;28;20108;-76
2022/12/27 06:09:38;;;;;;;21.95;12.75;;;;;;;;;;5064074;28;20027;-76
2022/12/27 06:12:05;;;;;;;14.75;8.60;;;;;;;;;;5061626;28;20490;-76
2022/12/27 06:14:31;;;;;;;16.02;8.38;;;;;;;;;;5063611;28;20471;-76
2022/12/27 06:16:57;;;;;;;12.98;7.90;;;;;;;;;;5065055;28;20044;-76
2022/12/27 06:19:23;;;;;;;14.05;9.05;;;;;;;;;;5062172;28;20087;-76
2022/12/27 06:21:49;;;;;;;10.38;6.93;;;;;;;;;;5064977;28;20068;-76
2022/12/27 06:24:15;;;;;;;13.30;7.25;;;;;;;;;;5063053;28;20063;-76
2022/12/27 06:26:41;;;;;;;17.85;10.27;;;;;;;;;;5069399;28;20028;-76
2022/12/27 06:29:09;;;;;;;12.43;8.25;;;;;;;;;;5067864;28;20041;-76
2022/12/27 06:31:35;;;;;;;11.35;7.10;;;;;;;;;;5068991;28;20044;-76
2022/12/27 06:34:01;;;;;;;19.50;11.15;;;;;;;;;;5068273;28;20036;-76
2022/12/27 06:36:29;;;;;;;10.85;5.72;;;;;;;;;;5065900;28;20908;-76
2022/12/27 06:38:55;;;;;;;11.07;5.93;;;;;;;;;;5068972;28;20139;-76
2022/12/27 06:41:21;;;;;;;11.93;7.70;;;;;;;;;;5069414;28;20032;-76
2022/12/27 06:43:47;;;;;;;11.35;7.07;;;;;;;;;;5067917;28;20066;-76
2022/12/27 06:46:15;;;;;;;9.60;6.25;;;;;;;;;;5068577;28;20035;-76
2022/12/27 06:48:41;;;;;;;14.10;7.63;;;;;;;;;;5064320;28;20438;-76
2022/12/27 06:51:08;;;;;;;13.50;7.57;;;;;;;;;;5067753;28;20147;-76
2022/12/27 06:53:35;;;;;;;12.45;6.50;;;;;;;;;;5066439;28;20039;-75
2022/12/27 06:56:08;;;;;;;10.73;7.53;;;;;;;;;;5068826;28;20071;-76
2022/12/27 06:58:34;;;;;;;10.82;7.22;;;;;;;;;;5063229;28;20052;-75
2022/12/27 07:01:10;;;;;;;9.90;7.03;;;;;;;;;;5066263;28;20033;-76
2022/12/27 07:03:37;;;;;;;11.57;6.07;;;;;;;;;;5068168;28;20028;-76
2022/12/27 07:06:03;;;;;;;10.82;7.68;;;;;;;;;;5065108;28;20449;-76
2022/12/27 07:08:29;;;;;;;9.50;6.35;;;;;;;;;;5067396;28;20033;-76
2022/12/27 07:11:03;;;;;;;10.50;5.82;;;;;;;;;;5066654;28;20033;-76
2022/12/27 07:13:29;;;;;;;9.27;6.10;;;;;;;;;;5067363;28;20610;-76
2022/12/27 07:15:55;;;;;;;6.50;4.78;;;;;;;;;;5067788;28;20064;-76
2022/12/27 07:18:21;;;;;;;10.02;4.60;;;;;;;;;;5065821;28;20067;-76
2022/12/27 07:20:47;;;;;;;8.88;5.13;;;;;;;;;;5067081;28;20029;-76
2022/12/27 07:23:14;;;;;;;8.93;3.95;;;;;;;;;;5066974;28;20032;-76
2022/12/27 07:25:40;;;;;;;5.90;3.88;;;;;;;;;;5067020;28;20017;-76
2022/12/27 07:28:06;;;;;;;5.82;2.60;;;;;;;;;;5058001;28;20033;-76
2022/12/27 07:30:32;;;;;;;8.43;3.60;;;;;;;;;;5066844;28;20033;-76
2022/12/27 07:32:58;;;;;;;10.90;5.75;;;;;;;;;;5066681;28;20091;-76
2022/12/27 07:35:24;;;;;;;7.57;3.85;;;;;;;;;;5068445;28;20032;-76
2022/12/27 07:37:49;;;;;;;7.70;3.60;;;;;;;;;;5066919;28;20040;-76
2022/12/27 07:40:16;;;;;;;5.72;3.60;;;;;;;;;;5065829;28;20071;-76
2022/12/27 07:42:42;;;;;;;12.30;4.55;;;;;;;;;;5067004;28;20075;-76
2022/12/27 07:45:08;;;;;;;7.35;4.38;;;;;;;;;;5067401;28;20560;-76
2022/12/27 07:47:34;;;;;;;7.68;3.20;;;;;;;;;;5065941;28;20032;-76
2022/12/27 07:50:00;;;;;;;7.20;4.20;;;;;;;;;;5066367;28;20039;-76
2022/12/27 07:52:26;;;;;;;7.30;5.13;;;;;;;;;;5060569;28;20036;-76
2022/12/27 07:54:52;;;;;;;7.70;5.70;;;;;;;;;;5062290;28;20505;-76
2022/12/27 07:57:18;;;;;;;7.07;4.25;;;;;;;;;;5063983;28;20039;-76
2022/12/27 07:59:44;;;;;;;7.10;4.60;;;;;;;;;;5064644;28;20036;-76
2022/12/27 08:02:10;;;;;;;9.48;4.45;;;;;;;;;;5067703;28;20332;-76
2022/12/27 08:04:37;;;;;;;8.88;4.57;;;;;;;;;;5060746;28;20059;-76
2022/12/27 08:07:14;;;;;;;8.77;4.68;;;;;;;;;;5066948;28;20044;-76
2022/12/27 08:09:40;;;;;;;7.97;4.75;;;;;;;;;;5063105;28;20024;-76
2022/12/27 08:12:07;;;;;;;9.93;6.28;;;;;;;;;;5066890;28;20028;-76
2022/12/27 08:14:33;;;;;;;11.18;6.00;;;;;;;;;;5065771;28;20634;-76
2022/12/27 08:17:03;;;;;;;12.80;7.65;;;;;;;;;;5063333;28;20037;-76
2022/12/27 08:19:29;;;;;;;13.93;7.75;;;;;;;;;;5066734;28;21044;-76
2022/12/27 08:21:55;;;;;;;15.90;10.32;;;;;;;;;;5063133;28;20686;-76
2022/12/27 08:24:21;;;;;;;10.57;7.07;;;;;;;;;;5063001;28;20071;-76
2022/12/27 08:26:47;;;;;;;12.98;8.63;;;;;;;;;;5065357;28;20079;-76
2022/12/27 08:29:13;;;;;;;11.80;7.90;;;;;;;;;;5063463;28;20028;-76
2022/12/27 08:31:39;;;;;;;10.52;6.63;;;;;;;;;;5066938;28;20032;-76
2022/12/27 08:34:05;;;;;;;12.15;7.88;;;;;;;;;;5064247;28;20064;-76
2022/12/27 08:36:31;;;;;;;11.43;7.32;;;;;;;;;;5067349;28;20098;-76
2022/12/27 08:38:57;;;;;;;16.58;7.03;;;;;;;;;;5063539;28;20044;-76
2022/12/27 08:41:23;;;;;;;11.52;8.10;;;;;;;;;;5065207;28;20035;-76
2022/12/27 08:43:49;;;;;;;11.50;8.18;;;;;;;;;;5063748;28;20025;-76
2022/12/27 08:46:15;;;;;;;15.90;10.20;;;;;;;;;;5066207;28;20059;-76
2022/12/27 08:48:41;;;;;;;13.23;9.20;;;;;;;;;;5061026;28;20032;-76
2022/12/27 08:51:07;;;;;;;12.95;9.55;;;;;;;;;;5063033;28;20037;-76
2022/12/27 08:53:34;;;;;;;14.77;9.65;;;;;;;;;;5065002;28;20042;-76
2022/12/27 08:56:00;;;;;;;13.70;9.40;;;;;;;;;;5067114;28;20052;-76
2022/12/27 08:58:26;;;;;;;15.52;10.82;;;;;;;;;;5059106;28;20035;-76
2022/12/27 09:00:52;;;;;;;17.05;13.07;;;;;;;;;;5066461;28;20401;-76
2022/12/27 09:03:19;;;;;;;14.15;10.60;;;;;;;;;;5063166;28;20136;-76
2022/12/27 09:05:45;;;;;;;14.43;9.80;;;;;;;;;;5066572;28;20032;-76
2022/12/27 09:08:12;;;;;;;13.98;9.65;;;;;;;;;;5064793;28;20033;-76
2022/12/27 09:10:38;;;;;;;14.95;10.70;;;;;;;;;;5063975;28;20048;-75
2022/12/27 09:13:04;;;;;;;15.30;11.88;;;;;;;;;;5064529;28;20085;-76
2022/12/27 09:15:30;;;;;;;12.65;9.10;;;;;;;;;;5064514;28;20111;-75
2022/12/27 09:17:56;;;;;;;15.38;11.35;;;;;;;;;;5065000;28;20135;-75
2022/12/27 09:20:22;;;;;;;14.30;9.75;;;;;;;;;;5063658;28;20044;-74
2022/12/27 09:22:48;;;;;;;19.90;15.07;;;;;;;;;;5063287;28;20028;-75
2022/12/27 09:25:17;;;;;;;15.85;10.50;;;;;;;;;;5064976;28;20131;-75
2022/12/27 09:27:43;;;;;;;15.52;10.50;;;;;;;;;;5061285;28;20029;-74
2022/12/27 09:30:09;;;;;;;12.55;6.93;;;;;;;;;;5061699;28;20078;-74
2022/12/27 09:32:35;;;;;;;16.65;9.93;;;;;;;;;;5060302;28;20074;-75
2022/12/27 09:35:02;;;;;;;16.38;9.88;;;;;;;;;;5062969;28;20107;-76
2022/12/27 09:37:28;;;;;;;12.27;9.43;;;;;;;;;;5065148;28;20036;-76
2022/12/27 09:39:54;;;;;;;12.93;8.73;;;;;;;;;;5066382;28;20037;-76
2022/12/27 09:42:28;;;;;;;12.50;7.82;;;;;;;;;;5065949;28;20650;-76
2022/12/27 09:45:15;;;;;;;14.43;9.85;;;;;;;;;;5065434;28;20025;-76
2022/12/27 09:47:46;;;;;;;14.93;9.10;;;;;;;;;;5065715;28;20474;-76
2022/12/27 09:50:18;;;;;;;11.23;7.25;;;;;;;;;;5066798;28;20894;-76
2022/12/27 09:52:54;;;;;;;11.57;9.63;;;;;;;;;;5064332;28;20823;-77
2022/12/27 09:55:37;;;;;;;22.50;15.88;;;;;;;;;;5063752;28;20040;-77
2022/12/27 09:58:13;;;;;;;19.63;13.13;;;;;;;;;;5066555;28;20032;-77
2022/12/27 10:00:39;;;;;;;18.52;11.43;;;;;;;;;;5068089;28;20418;-77
2022/12/27 10:03:05;;;;;;;16.02;11.23;;;;;;;;;;5064135;28;20037;-77
2022/12/27 10:05:33;;;;;;;19.33;13.82;;;;;;;;;;5066617;28;20025;-77
2022/12/27 10:08:19;;;;;;;20.70;15.15;;;;;;;;;;5067648;28;20563;-77
2022/12/27 10:11:04;;;;;;;14.90;9.63;;;;;;;;;;5047501;28;20040;-77
2022/12/27 10:13:30;;;;;;;19.67;13.40;;;;;;;;;;5064832;28;20048;-77
2022/12/27 10:16:05;;;;;;;19.60;13.48;;;;;;;;;;5063523;28;20082;-77
2022/12/27 10:18:31;;;;;;;18.55;12.05;;;;;;;;;;5066138;28;20055;-76
2022/12/27 10:21:20;;;;;;;18.90;11.00;;;;;;;;;;5066589;28;20452;-78
2022/12/27 10:23:58;;;;;;;18.83;12.20;;;;;;;;;;5059243;28;20040;-77
2022/12/27 10:26:24;;;;;;;22.92;15.52;;;;;;;;;;5061128;28;20111;-77
2022/12/27 10:28:54;;;;;;;26.05;18.05;;;;;;;;;;5061442;28;20128;-77
2022/12/27 10:31:21;;;;;;;26.13;19.10;;;;;;;;;;5062608;28;20037;-77
2022/12/27 10:33:48;;;;;;;23.30;16.70;;;;;;;;;;5060809;28;20028;-78
2022/12/27 10:36:22;;;;;;;22.73;13.98;;;;;;;;;;5061450;28;20052;-78
2022/12/27 10:38:48;;;;;;;26.08;18.35;;;;;;;;;;5059539;28;20033;-78
2022/12/27 10:41:35;;;;;;;24.25;16.50;;;;;;;;;;5063253;28;20040;-78
2022/12/27 10:44:01;;;;;;;29.25;17.90;;;;;;;;;;5060385;28;20053;-78
2022/12/27 10:46:31;;;;;;;30.98;22.33;;;;;;;;;;5066512;28;20528;-78
2022/12/27 10:48:57;;;;;;;47.53;28.45;;;;;;;;;;5062027;28;20036;-78
2022/12/27 10:51:24;;;;;;;68.85;39.85;;;;;;;;;;5065868;28;20102;-78
2022/12/27 10:53:50;;;;;;;51.95;35.17;;;;;;;;;;5065302;28;20033;-78
2022/12/27 10:56:27;;;;;;;41.55;25.88;;;;;;;;;;5066665;28;20056;-79
2022/12/27 10:58:54;;;;;;;30.23;20.52;;;;;;;;;;5067301;28;20056;-78
2022/12/27 11:01:27;;;;;;;25.65;16.58;;;;;;;;;;5066500;28;20036;-78
2022/12/27 11:04:08;;;;;;;20.67;14.63;;;;;;;;;;5064002;28;20052;-78
2022/12/27 11:06:34;;;;;;;34.67;20.83;;;;;;;;;;5065271;28;20028;-78
2022/12/27 11:09:17;;;;;;;29.90;19.02;;;;;;;;;;5068838;28;20502;-78
2022/12/27 11:11:42;;;;;;;;;;;;;;;;;;5067033;28;20054;-77
2022/12/27 11:14:10;;;;;;;29.92;20.05;;;;;;;;;;5068631;28;20361;-77
2022/12/27 11:16:36;;;;;;;28.83;16.08;;;;;;;;;;5067286;28;20121;-77
2022/12/27 11:19:04;;;;;;;18.25;10.65;;;;;;;;;;5069596;28;20032;-78
2022/12/27 11:21:30;;;;;;;25.13;14.10;;;;;;;;;;5060199;28;20115;-78
2022/12/27 11:23:58;;;;;;;28.83;15.80;;;;;;;;;;5070375;28;20711;-78
2022/12/27 11:26:27;;;;;;;28.85;16.30;;;;;;;;;;5066236;28;20055;-78
2022/12/27 11:28:58;;;;;;;26.65;14.20;;;;;;;;;;5070171;28;20071;-78
2022/12/27 11:31:32;;;;;;;25.60;16.95;;;;;;;;;;5067447;28;20039;-77
2022/12/27 11:34:00;;;;;;;21.00;14.32;;;;;;;;;;5069543;28;20048;-77
2022/12/27 11:36:28;;;;;;;24.05;10.20;;;;;;;;;;5067825;28;20040;-77
2022/12/27 11:38:54;;;;;;;17.73;11.07;;;;;;;;;;5069803;28;20062;-77
2022/12/27 11:41:31;;;;;;;15.82;9.45;;;;;;;;;;5070021;28;20520;-77
2022/12/27 11:43:59;;;;;;;11.18;6.15;;;;;;;;;;5070045;28;20032;-77
2022/12/27 11:46:35;;;;;;;9.68;5.30;;;;;;;;;;5069810;28;20518;-77
2022/12/27 11:49:02;;;;;;;10.52;3.05;;;;;;;;;;5063972;28;20359;-77
2022/12/27 11:51:37;;;;;;;10.30;4.10;;;;;;;;;;5067871;28;20040;-76
2022/12/27 11:54:22;;;;;;;16.75;11.93;;;;;;;;;;5068581;28;20086;-76
2022/12/27 11:56:51;;;;;;;19.88;12.10;;;;;;;;;;5065364;28;20047;-77
2022/12/27 11:59:17;;;;;;;8.73;4.70;;;;;;;;;;5069538;28;20063;-78
2022/12/27 12:01:58;;;;;;;5.57;3.00;;;;;;;;;;5067356;28;20865;-77
2022/12/27 12:04:24;;;;;;;8.93;2.53;;;;;;;;;;5070124;28;20469;-78
2022/12/27 12:07:09;;;;;;;4.53;2.17;;;;;;;;;;5070297;28;20033;-77
2022/12/27 12:09:45;;;;;;;4.63;2.30;;;;;;;;;;5066250;28;20059;-77
2022/12/27 12:12:29;;;;;;;6.47;2.05;;;;;;;;;;5060011;28;20043;-77
2022/12/27 12:14:58;;;;;;;11.25;3.80;;;;;;;;;;5051033;28;20055;-78
2022/12/27 12:17:36;;;;;;;7.20;4.57;;;;;;;;;;5067499;28;20032;-78
2022/12/27 12:20:10;;;;;;;11.65;7.03;;;;;;;;;;5064785;28;20630;-78
2022/12/27 12:23:01;;;;;;;9.05;6.10;;;;;;;;;;5063218;28;20079;-78
2022/12/27 12:25:45;;;;;;;11.82;7.70;;;;;;;;;;5068537;28;20112;-78
2022/12/27 12:28:38;;;;;;;14.18;8.77;;;;;;;;;;5061028;28;20490;-78
2022/12/27 12:31:10;;;;;;;10.48;4.60;;;;;;;;;;5062708;28;20507;-78
2022/12/27 12:33:41;;;;;;;5.22;1.73;;;;;;;;;;5066468;28;20024;-78
2022/12/27 12:36:25;;;;;;;3.47;1.37;;;;;;;;;;5067416;28;20044;-78
2022/12/27 12:39:01;;;;;;;4.20;1.30;;;;;;;;;;5045419;28;20035;-78
2022/12/27 12:41:42;;;;;;;7.38;3.10;;;;;;;;;;5067026;28;20035;-78
2022/12/27 12:44:29;;;;;;;12.07;6.07;;;;;;;;;;5040917;28;20058;-78
2022/12/27 12:47:11;;;;;;;9.15;4.03;;;;;;;;;;5067909;28;20037;-78
2022/12/27 12:49:44;;;;;;;5.50;3.53;;;;;;;;;;5067932;28;20039;-78
2022/12/27 12:52:28;;;;;;;9.45;4.97;;;;;;;;;;5062223;28;20041;-78
2022/12/27 12:55:13;;;;;;;7.43;4.70;;;;;;;;;;5066526;28;20060;-78
2022/12/27 12:57:39;;;;;;;6.10;3.28;;;;;;;;;;5063963;28;20036;-78
2022/12/27 13:00:14;;;;;;;6.53;3.70;;;;;;;;;;5065076;28;20079;-78
2022/12/27 13:02:48;;;;;;;5.30;2.95;;;;;;;;;;5048903;28;20067;-78
2022/12/27 13:05:33;;;;;;;6.60;3.33;;;;;;;;;;5066965;28;20029;-78
2022/12/27 13:08:02;;;;;;;13.18;10.52;;;;;;;;;;5061612;28;20071;-78
2022/12/27 13:10:28;;;;;;;17.35;15.30;;;;;;;;;;5048998;28;20037;-78
2022/12/27 13:13:10;;;;;;;16.48;10.10;;;;;;;;;;5066919;28;20078;-78
2022/12/27 13:15:51;;;;;;;18.35;11.43;;;;;;;;;;5057704;28;20059;-78
2022/12/27 13:18:24;;;;;;;19.35;13.07;;;;;;;;;;5063398;28;20032;-78
2022/12/27 13:21:04;;;;;;;16.15;10.77;;;;;;;;;;5065199;28;20047;-78
2022/12/27 13:23:46;;;;;;;19.73;13.70;;;;;;;;;;5065543;28;20033;-78
2022/12/27 13:26:12;;;;;;;15.77;10.20;;;;;;;;;;5062830;28;20471;-78
2022/12/27 13:28:57;;;;;;;18.33;11.00;;;;;;;;;;5062922;28;20475;-78
2022/12/27 13:31:38;;;;;;;14.02;9.57;;;;;;;;;;5066822;28;20040;-78
2022/12/27 13:34:04;;;;;;;15.00;9.38;;;;;;;;;;5048698;28;20032;-78
2022/12/27 13:36:36;;;;;;;11.85;6.72;;;;;;;;;;5066720;28;20099;-78
2022/12/27 13:39:14;;;;;;;11.75;6.22;;;;;;;;;;5065978;28;20036;-78
2022/12/27 13:41:55;;;;;;;9.63;5.72;;;;;;;;;;5040722;28;20041;-78
2022/12/27 13:44:33;;;;;;;7.75;5.35;;;;;;;;;;5060831;28;20126;-78
2022/12/27 13:47:00;;;;;;;7.47;3.55;;;;;;;;;;5065330;28;20040;-78
2022/12/27 13:49:41;;;;;;;8.90;4.25;;;;;;;;;;5067482;28;20028;-78
2022/12/27 13:52:14;;;;;;;11.48;6.85;;;;;;;;;;5068361;28;20068;-78
2022/12/27 13:54:40;;;;;;;13.43;6.40;;;;;;;;;;5065110;28;20048;-78
2022/12/27 13:57:12;;;;;;;9.02;4.93;;;;;;;;;;5067085;28;20033;-77
2022/12/27 13:59:44;;;;;;;7.93;4.50;;;;;;;;;;5064582;28;20506;-78
2022/12/27 14:02:29;;;;;;;7.28;4.22;;;;;;;;;;5067391;28;20051;-78
2022/12/27 14:05:01;;;;;;;7.63;4.43;;;;;;;;;;5067345;28;20040;-78
2022/12/27 14:07:36;;;;;;;9.65;4.43;;;;;;;;;;5068073;28;20032;-77
2022/12/27 14:10:08;;;;;;;11.30;4.40;;;;;;;;;;5066757;28;20024;-78
2022/12/27 14:12:34;;;;;;;17.05;9.40;;;;;;;;;;5062801;28;20057;-78
2022/12/27 14:15:01;;;;;;;20.45;12.30;;;;;;;;;;5065094;28;20094;-78
2022/12/27 14:17:33;;;;;;;26.65;15.90;;;;;;;;;;5067586;28;20067;-78
2022/12/27 14:20:04;;;;;;;15.15;4.90;;;;;;;;;;5061879;28;20107;-78
2022/12/27 14:22:48;;;;;;;6.45;2.80;;;;;;;;;;5065362;28;20908;-78
2022/12/27 14:25:14;;;;;;;5.28;2.35;;;;;;;;;;5066468;28;20039;-78
2022/12/27 14:27:46;;;;;;;9.52;2.85;;;;;;;;;;5067710;28;20037;-78
2022/12/27 14:30:31;;;;;;;6.10;2.30;;;;;;;;;;5062095;28;20470;-77
2022/12/27 14:33:21;;;;;;;6.68;3.40;;;;;;;;;;5063443;28;20043;-78
2022/12/27 14:35:53;;;;;;;8.57;4.05;;;;;;;;;;5064325;28;20037;-78
2022/12/27 14:38:28;;;;;;;6.80;3.08;;;;;;;;;;5065531;28;20207;-78
2022/12/27 14:41:14;;;;;;;10.05;4.85;;;;;;;;;;5060653;28;20108;-78
2022/12/27 14:44:03;;;;;;;11.75;6.45;;;;;;;;;;5065668;28;20511;-78
2022/12/27 14:46:41;;;;;;;9.23;4.40;;;;;;;;;;5071182;28;20070;-78
2022/12/27 14:49:26;;;;;;;12.77;4.25;;;;;;;;;;5069073;28;20029;-78
2022/12/27 14:52:07;;;;;;;7.97;3.63;;;;;;;;;;5068356;28;20044;-78
2022/12/27 14:54:52;;;;;;;8.38;4.60;;;;;;;;;;5070071;28;20051;-78
2022/12/27 14:57:28;;;;;;;13.63;7.28;;;;;;;;;;5068372;28;20860;-78
2022/12/27 15:00:13;;;;;;;14.70;7.80;;;;;;;;;;5071052;28;20524;-78
2022/12/27 15:02:42;;;;;;;10.25;5.55;;;;;;;;;;5065072;28;20083;-78
2022/12/27 15:05:34;;;;;;;17.55;9.45;;;;;;;;;;5067923;28;20036;-77
2022/12/27 15:08:15;;;;;;;13.32;8.20;;;;;;;;;;5063431;28;20048;-78
2022/12/27 15:10:53;;;;;;;19.90;11.68;;;;;;;;;;5070884;28;20052;-78
2022/12/27 15:13:22;;;;;;;17.23;10.40;;;;;;;;;;5066162;28;20040;-78
2022/12/27 15:16:07;;;;;;;13.02;7.68;;;;;;;;;;5070289;28;20024;-78
2022/12/27 15:18:48;;;;;;;12.27;4.57;;;;;;;;;;5062305;28;20082;-78
2022/12/27 15:21:14;;;;;;;15.20;7.53;;;;;;;;;;5067818;28;20035;-78
2022/12/27 15:23:59;;;;;;;10.10;5.05;;;;;;;;;;5070289;28;20103;-78
2022/12/27 15:26:25;;;;;;;9.35;4.32;;;;;;;;;;5068728;28;20120;-78
2022/12/27 15:29:01;;;;;;;6.72;3.60;;;;;;;;;;5070706;28;20096;-78
2022/12/27 15:31:39;;;;;;;8.35;4.97;;;;;;;;;;5068448;28;20526;-78
2022/12/27 15:34:12;;;;;;;13.07;6.90;;;;;;;;;;5049975;28;20082;-78
2022/12/27 15:36:37;;;;;;;;;;;;;;;;;;5069974;28;21007;-78
2022/12/27 15:39:04;;;;;;;9.18;5.30;;;;;;;;;;5070248;28;19912;-78
2022/12/27 15:41:47;;;;;;;13.00;5.30;;;;;;;;;;5063418;28;20043;-78
2022/12/27 15:44:16;;;;;;;8.63;4.93;;;;;;;;;;5064789;28;20020;-78
2022/12/27 15:46:51;;;;;;;9.13;5.82;;;;;;;;;;5068358;28;20141;-78
2022/12/27 15:49:17;;;;;;;10.55;5.20;;;;;;;;;;5067215;28;20032;-78
2022/12/27 15:51:52;;;;;;;18.85;10.73;;;;;;;;;;5069015;28;20036;-78
2022/12/27 15:54:21;;;;;;;11.32;7.13;;;;;;;;;;5060688;28;20049;-78
2022/12/27 15:57:06;;;;;;;14.00;6.97;;;;;;;;;;5066707;28;20036;-78
2022/12/27 15:59:35;;;;;;;9.80;6.50;;;;;;;;;;5069387;28;20394;-78
2022/12/27 16:02:16;;;;;;;9.70;5.55;;;;;;;;;;5069142;28;20043;-78
2022/12/27 16:04:47;;;;;;;9.07;5.35;;;;;;;;;;5066186;28;20020;-78
2022/12/27 16:07:32;;;;;;;11.98;6.28;;;;;;;;;;5067183;28;20040;-78
2022/12/27 16:09:58;;;;;;;11.32;6.15;;;;;;;;;;5069308;28;20070;-78
2022/12/27 16:12:35;;;;;;;9.77;5.82;;;;;;;;;;5068508;28;20040;-78
2022/12/27 16:15:20;;;;;;;9.13;5.13;;;;;;;;;;5068368;28;20029;-78
2022/12/27 16:17:53;;;;;;;9.98;6.28;;;;;;;;;;5049526;28;20117;-78
2022/12/27 16:20:20;;;;;;;14.15;6.10;;;;;;;;;;5068645;28;20098;-79
2022/12/27 16:22:51;;;;;;;13.52;7.32;;;;;;;;;;5068575;28;20508;-78
2022/12/27 16:25:24;;;;;;;8.18;4.55;;;;;;;;;;5069736;28;20075;-78
2022/12/27 16:27:58;;;;;;;10.70;5.50;;;;;;;;;;5064731;28;20079;-78